Terminal Aerodrome Forecast
Issued by NWS Riverton, WY

Home | Current Version | Previous Version | Text Only | Print | Product List | Glossary On
Versions: 1 2 3 4 5 6 7 8 9 10 11 12 13
000
FTUS45 KRIW 182300
TAFRIW
TAF
KRIW 182328Z 1900/1924 01020G30KT P6SM VCSH SCT060 BKN080
     FM190300 01022KT P6SM VCSH SCT030 OVC050
     FM190700 01010G14KT P6SM VCSH SCT025 OVC040
     FM191200 36007KT P6SM SCT040 SCT070=

USA.gov is the U.S. government's official web portal to all federal, state and local government web resources and services.